Time;durP1;ratioP1;P1;durP2;ratioP2;P2;SDS_P1;SDS_P2;PMS_P1;PMS_P2;Temp;Humidity;BMP_temperature;BMP_pressure;BME280_temperature;BME280_humidity;BME280_pressure;Samples;Min_cycle;Max_cycle;Signal;HPM_P1;HPM_P2
2022/03/03 00:01:59;;;;;;;22.53;12.93;;;-1.30;49.50;;;;;;5029463;28;46470;-62
2022/03/03 00:04:25;;;;;;;23.57;12.33;;;-1.30;49.50;;;;;;5031427;28;45843;-63
2022/03/03 00:06:50;;;;;;;21.17;11.70;;;-1.30;49.40;;;;;;5032947;28;46402;-63
2022/03/03 00:09:16;;;;;;;28.77;14.47;;;-1.30;49.50;;;;;;5034116;28;46430;-64
2022/03/03 00:11:42;;;;;;;24.13;13.10;;;-1.30;49.50;;;;;;5028254;28;45794;-63
2022/03/03 00:14:07;;;;;;;26.37;13.83;;;-1.30;49.40;;;;;;5029745;28;45816;-64
2022/03/03 00:16:33;;;;;;;42.23;14.67;;;-1.30;49.50;;;;;;5028578;28;46405;-63
2022/03/03 00:18:59;;;;;;;25.00;13.60;;;-1.30;49.60;;;;;;5030303;28;46377;-64
2022/03/03 00:21:25;;;;;;;27.43;14.97;;;-1.30;49.70;;;;;;5031549;28;46338;-62
2022/03/03 00:23:50;;;;;;;27.03;14.60;;;-1.30;49.80;;;;;;5027252;28;46468;-65
2022/03/03 00:26:16;;;;;;;22.80;13.80;;;-1.30;49.80;;;;;;5027813;28;46725;-62
2022/03/03 00:28:42;;;;;;;25.20;14.63;;;-1.30;49.80;;;;;;5031383;28;46429;-62
2022/03/03 00:31:08;;;;;;;22.77;13.80;;;-1.30;49.80;;;;;;5032898;28;46454;-62
2022/03/03 00:33:33;;;;;;;27.37;13.13;;;-1.30;50.00;;;;;;5025956;28;46326;-62
2022/03/03 00:35:59;;;;;;;30.83;13.80;;;-1.30;49.90;;;;;;5028638;28;46558;-64
2022/03/03 00:38:25;;;;;;;22.97;12.93;;;-1.30;50.00;;;;;;5029851;28;47098;-63
2022/03/03 00:40:51;;;;;;;25.25;14.25;;;-1.30;50.00;;;;;;5031935;28;46416;-62
2022/03/03 00:43:17;;;;;;;23.83;13.50;;;-1.40;50.10;;;;;;5037954;28;46676;-62
2022/03/03 00:45:42;;;;;;;27.30;14.40;;;-1.40;50.30;;;;;;5040867;28;46558;-63
2022/03/03 00:48:08;;;;;;;24.80;14.30;;;-1.40;50.40;;;;;;5036250;28;46483;-63
2022/03/03 00:50:36;;;;;;;36.27;15.07;;;-1.50;50.50;;;;;;5033891;28;46596;-63
2022/03/03 00:53:02;;;;;;;25.83;13.60;;;-1.40;50.70;;;;;;5033038;28;46307;-64
2022/03/03 00:55:27;;;;;;;26.48;15.15;;;-1.40;50.70;;;;;;5034718;28;46296;-63
2022/03/03 00:57:53;;;;;;;25.27;14.90;;;-1.50;50.70;;;;;;5031988;28;46294;-62
2022/03/03 01:00:19;;;;;;;26.70;13.90;;;-1.50;50.90;;;;;;5030662;28;46383;-63
2022/03/03 01:02:51;;;;;;;26.50;14.17;;;-1.60;50.80;;;;;;5028481;28;46308;-63
2022/03/03 01:05:17;;;;;;;33.42;15.73;;;-1.60;50.90;;;;;;5030462;28;45868;-63
2022/03/03 01:07:43;;;;;;;29.08;15.10;;;-1.60;50.90;;;;;;5026267;28;46389;-64
2022/03/03 01:10:10;;;;;;;29.33;15.47;;;-1.70;51.10;;;;;;5032349;28;46364;-63
2022/03/03 01:12:36;;;;;;;29.15;15.85;;;-1.60;51.20;;;;;;5037210;28;46465;-64
2022/03/03 01:15:04;;;;;;;27.75;14.25;;;-1.60;51.10;;;;;;5038348;28;46469;-65
2022/03/03 01:17:30;;;;;;;31.42;15.20;;;-1.70;51.10;;;;;;5031991;28;47328;-64
2022/03/03 01:19:55;;;;;;;25.63;13.70;;;-1.70;51.20;;;;;;5032635;28;46362;-64
2022/03/03 01:22:21;;;;;;;25.87;13.70;;;-1.70;51.20;;;;;;5033948;28;46476;-64
2022/03/03 01:24:47;;;;;;;27.80;14.10;;;-1.70;51.40;;;;;;5035643;28;46426;-64
2022/03/03 01:27:12;;;;;;;24.33;14.77;;;-1.80;51.30;;;;;;5031051;28;46497;-64
2022/03/03 01:29:39;;;;;;;36.03;16.35;;;-1.80;51.50;;;;;;5032449;28;46645;-64
2022/03/03 01:32:06;;;;;;;28.03;14.87;;;-1.90;51.40;;;;;;5030198;28;46406;-63
2022/03/03 01:34:32;;;;;;;34.45;15.52;;;-1.90;51.60;;;;;;5033248;28;46296;-64
2022/03/03 01:36:57;;;;;;;26.30;14.73;;;-1.90;51.70;;;;;;5028460;28;46443;-63
2022/03/03 01:39:23;;;;;;;26.90;15.00;;;-1.90;51.60;;;;;;5033428;28;46469;-63
2022/03/03 01:41:49;;;;;;;34.33;14.97;;;-1.80;51.70;;;;;;5035612;28;46390;-63
2022/03/03 01:44:14;;;;;;;21.40;13.17;;;-1.90;51.70;;;;;;5031823;28;46473;-63
2022/03/03 01:46:53;;;;;;;21.77;12.80;;;-1.90;51.80;;;;;;5035532;28;46513;-64
2022/03/03 01:49:19;;;;;;;26.15;13.95;;;-1.90;51.80;;;;;;5030698;28;46713;-62
2022/03/03 01:51:45;;;;;;;22.95;13.07;;;-1.90;51.70;;;;;;5026934;28;46446;-61
2022/03/03 01:54:11;;;;;;;23.90;13.87;;;-1.90;51.70;;;;;;5035032;28;46420;-64
2022/03/03 01:56:38;;;;;;;22.70;13.32;;;-2.00;51.70;;;;;;5035570;28;46489;-64
2022/03/03 01:59:04;;;;;;;24.75;13.27;;;-2.00;51.90;;;;;;5030076;28;46492;-62
2022/03/03 02:01:31;;;;;;;24.97;12.90;;;-2.00;52.00;;;;;;5031243;28;46584;-62
2022/03/03 02:03:58;;;;;;;33.47;13.82;;;-2.00;52.00;;;;;;5034619;28;46514;-64
2022/03/03 02:06:25;;;;;;;27.50;13.60;;;-2.00;52.10;;;;;;5036883;28;46209;-64
2022/03/03 02:08:53;;;;;;;25.73;13.30;;;-2.10;52.10;;;;;;5034394;28;46673;-65
2022/03/03 02:11:20;;;;;;;29.30;13.57;;;-2.10;52.10;;;;;;5029511;28;46364;-64
2022/03/03 02:13:46;;;;;;;21.60;12.80;;;-2.10;52.20;;;;;;5032708;28;46350;-64
2022/03/03 02:16:12;;;;;;;23.67;13.00;;;-2.10;52.20;;;;;;5029434;28;46405;-63
2022/03/03 02:18:41;;;;;;;20.03;11.73;;;-2.10;52.20;;;;;;5031432;28;46458;-64
2022/03/03 02:21:13;;;;;;;23.42;12.65;;;-2.10;52.60;;;;;;5033115;28;46679;-63
2022/03/03 02:23:39;;;;;;;25.50;13.18;;;-2.20;52.30;;;;;;5032369;28;46549;-64
2022/03/03 02:26:07;;;;;;;19.58;11.48;;;-2.30;52.50;;;;;;5029753;28;48066;-64
2022/03/03 02:28:34;;;;;;;22.10;11.82;;;-2.40;52.70;;;;;;5033383;28;46675;-64
2022/03/03 02:31:00;;;;;;;20.60;11.77;;;-2.50;52.90;;;;;;5033238;28;46340;-63
2022/03/03 02:33:25;;;;;;;23.30;11.80;;;-2.50;53.00;;;;;;5031862;28;46437;-64
2022/03/03 02:35:51;;;;;;;17.93;11.37;;;-2.50;53.00;;;;;;5032216;28;47093;-64
2022/03/03 02:38:17;;;;;;;30.87;11.80;;;-2.50;52.80;;;;;;5031203;28;46741;-64
2022/03/03 02:40:42;;;;;;;26.13;12.63;;;-2.50;53.00;;;;;;5030684;28;46373;-64
2022/03/03 02:43:08;;;;;;;26.17;13.17;;;-2.50;53.00;;;;;;5028018;28;46397;-64
2022/03/03 02:45:33;;;;;;;23.27;12.47;;;-2.50;52.90;;;;;;5035671;28;48323;-64
2022/03/03 02:47:59;;;;;;;22.30;11.57;;;-2.50;53.00;;;;;;5032640;28;46295;-63
2022/03/03 02:50:25;;;;;;;28.57;13.83;;;-2.50;53.20;;;;;;5029445;28;46377;-64
2022/03/03 02:52:51;;;;;;;23.33;12.02;;;-2.60;53.10;;;;;;5032318;28;46402;-64
2022/03/03 02:55:17;;;;;;;21.23;11.67;;;-2.60;53.10;;;;;;5034580;28;46287;-64
2022/03/03 02:57:54;;;;;;;23.37;13.00;;;-2.60;53.20;;;;;;5029627;28;46374;-65
2022/03/03 03:00:29;;;;;;;27.60;13.07;;;-2.60;53.20;;;;;;5026915;28;46585;-64
2022/03/03 03:02:55;;;;;;;26.13;12.13;;;-2.70;53.20;;;;;;5030838;28;46488;-64
2022/03/03 03:05:20;;;;;;;22.83;12.38;;;-2.60;53.30;;;;;;5029999;28;46653;-64
2022/03/03 03:07:46;;;;;;;23.13;13.23;;;-2.70;53.30;;;;;;5030288;28;46402;-64
2022/03/03 03:10:12;;;;;;;23.30;12.55;;;-2.70;53.30;;;;;;5026427;28;46449;-64
2022/03/03 03:12:38;;;;;;;24.57;13.10;;;-2.60;54.60;;;;;;5031574;28;46513;-64
2022/03/03 03:15:04;;;;;;;35.83;15.00;;;-2.60;53.30;;;;;;5032969;28;46357;-64
2022/03/03 03:17:30;;;;;;;38.30;16.35;;;-2.60;53.30;;;;;;5029649;28;46482;-64
2022/03/03 03:19:56;;;;;;;36.00;16.47;;;-2.50;53.50;;;;;;5030035;28;46372;-63
2022/03/03 03:22:22;;;;;;;39.03;18.37;;;-2.60;53.50;;;;;;5025272;28;46298;-62
2022/03/03 03:24:47;;;;;;;40.83;18.77;;;-2.60;53.50;;;;;;5026439;28;47000;-64
2022/03/03 03:27:13;;;;;;;36.40;16.80;;;-2.70;53.70;;;;;;5023297;28;46344;-65
2022/03/03 03:29:38;;;;;;;31.23;14.00;;;-2.60;53.40;;;;;;5033026;28;46399;-64
2022/03/03 03:32:05;;;;;;;19.73;11.33;;;-2.70;53.40;;;;;;5024924;28;46556;-64
2022/03/03 03:34:30;;;;;;;27.60;13.45;;;-2.70;53.50;;;;;;5030797;28;48967;-65
2022/03/03 03:36:56;;;;;;;25.80;12.43;;;-2.70;53.60;;;;;;5027079;28;46482;-64
2022/03/03 03:39:21;;;;;;;22.67;13.20;;;-2.80;53.70;;;;;;5029817;28;46367;-63
2022/03/03 03:41:47;;;;;;;33.37;12.93;;;-2.80;53.70;;;;;;5028879;28;45870;-64
2022/03/03 03:44:13;;;;;;;21.00;11.30;;;-2.80;53.70;;;;;;5024390;28;46423;-64
2022/03/03 03:46:39;;;;;;;19.80;11.33;;;-2.80;53.80;;;;;;5025171;28;46322;-64
2022/03/03 03:49:05;;;;;;;23.23;11.60;;;-2.90;53.80;;;;;;5030426;28;46419;-63
2022/03/03 03:51:31;;;;;;;20.80;12.05;;;-2.90;54.00;;;;;;5025844;28;46402;-63
2022/03/03 03:53:57;;;;;;;21.08;11.80;;;-3.00;54.00;;;;;;5029647;28;47315;-64
2022/03/03 03:56:22;;;;;;;22.07;12.70;;;-3.00;54.00;;;;;;5030394;28;46701;-64
2022/03/03 03:58:50;;;;;;;20.47;11.90;;;-3.00;54.00;;;;;;5033562;28;46486;-64
2022/03/03 04:01:15;;;;;;;23.30;10.95;;;-3.00;54.10;;;;;;5032155;28;46429;-66
2022/03/03 04:03:41;;;;;;;23.40;11.27;;;-3.10;54.00;;;;;;5034918;28;46361;-64
2022/03/03 04:06:07;;;;;;;23.90;12.80;;;-3.10;54.00;;;;;;5029184;28;46386;-64
2022/03/03 04:08:32;;;;;;;18.33;10.93;;;-3.10;54.10;;;;;;5030007;28;46401;-63
2022/03/03 04:10:58;;;;;;;22.50;12.17;;;-3.10;54.10;;;;;;5034411;28;46394;-63
2022/03/03 04:13:23;;;;;;;20.90;11.60;;;-3.10;53.90;;;;;;5032539;28;46479;-64
2022/03/03 04:15:49;;;;;;;24.30;12.20;;;-3.10;54.00;;;;;;5034092;28;46501;-64
2022/03/03 04:18:15;;;;;;;21.70;12.67;;;-3.10;54.20;;;;;;5034282;28;46176;-64
2022/03/03 04:20:41;;;;;;;26.00;12.50;;;-3.10;54.20;;;;;;5038487;28;46657;-65
2022/03/03 04:23:06;;;;;;;22.73;13.10;;;-3.10;54.20;;;;;;5030623;28;47091;-64
2022/03/03 04:25:33;;;;;;;26.07;12.47;;;-3.10;54.20;;;;;;5031847;28;46450;-64
2022/03/03 04:27:59;;;;;;;21.75;12.00;;;-3.10;54.20;;;;;;5031417;28;45825;-64
2022/03/03 04:30:25;;;;;;;21.70;12.50;;;-3.10;54.20;;;;;;5033996;28;46820;-64
2022/03/03 04:32:51;;;;;;;24.70;11.57;;;-3.10;54.20;;;;;;5035186;28;46450;-65
2022/03/03 04:35:17;;;;;;;23.42;12.77;;;-3.10;54.20;;;;;;5031001;28;46058;-65
2022/03/03 04:37:42;;;;;;;25.10;11.30;;;-3.10;54.30;;;;;;5029836;28;45875;-65
2022/03/03 04:40:09;;;;;;;18.13;11.50;;;-3.20;54.20;;;;;;5037653;28;45873;-64
2022/03/03 04:42:35;;;;;;;18.98;11.68;;;-3.20;54.20;;;;;;5035024;28;46311;-65
2022/03/03 04:45:01;;;;;;;19.65;10.90;;;-3.20;54.20;;;;;;5036977;28;46378;-65
2022/03/03 04:47:26;;;;;;;21.73;12.73;;;-3.20;54.20;;;;;;5036644;28;46377;-64
2022/03/03 04:49:52;;;;;;;23.23;11.20;;;-3.30;54.10;;;;;;5036157;28;46617;-65
2022/03/03 04:52:18;;;;;;;22.70;11.80;;;-3.30;54.10;;;;;;5032472;28;46394;-66
2022/03/03 04:54:44;;;;;;;23.93;12.20;;;-3.30;54.10;;;;;;5035334;28;46450;-66
2022/03/03 04:57:10;;;;;;;24.70;13.27;;;-3.30;54.10;;;;;;5033649;28;46510;-64
2022/03/03 04:59:36;;;;;;;20.30;11.90;;;-3.30;54.20;;;;;;5032962;28;46359;-65
2022/03/03 05:02:01;;;;;;;31.57;13.47;;;-3.30;54.30;;;;;;5029637;28;46437;-64
2022/03/03 05:04:27;;;;;;;26.80;13.10;;;-3.30;54.30;;;;;;5032858;28;46444;-64
2022/03/03 05:06:53;;;;;;;28.67;12.80;;;-3.40;54.40;;;;;;5034272;28;45842;-64
2022/03/03 05:09:18;;;;;;;24.53;13.23;;;-3.40;54.70;;;;;;5035731;28;46304;-64
2022/03/03 05:11:44;;;;;;;24.33;13.77;;;-3.40;54.70;;;;;;5033944;28;46431;-64
2022/03/03 05:14:10;;;;;;;25.30;13.77;;;-3.40;54.70;;;;;;5034371;28;45823;-63
2022/03/03 05:16:36;;;;;;;31.80;16.95;;;-3.40;54.70;;;;;;5034911;28;46366;-62
2022/03/03 05:19:01;;;;;;;31.03;15.53;;;-3.40;54.60;;;;;;5033379;28;46288;-64
2022/03/03 05:21:27;;;;;;;31.83;15.43;;;-3.40;54.60;;;;;;5030968;28;46324;-64
2022/03/03 05:23:53;;;;;;;30.10;16.02;;;-3.40;54.60;;;;;;5036022;28;46490;-64
2022/03/03 05:26:19;;;;;;;31.40;15.30;;;-3.40;54.60;;;;;;5029568;28;45865;-64
2022/03/03 05:28:44;;;;;;;24.60;13.63;;;-3.40;54.50;;;;;;5031388;28;46538;-64
2022/03/03 05:31:10;;;;;;;22.13;12.90;;;-3.40;54.50;;;;;;5036451;28;46539;-64
2022/03/03 05:33:36;;;;;;;27.50;13.47;;;-3.40;55.60;;;;;;5034423;28;46445;-65
2022/03/03 05:36:06;;;;;;;23.23;12.80;;;-3.40;54.60;;;;;;5029554;28;45849;-64
2022/03/03 05:38:33;;;;;;;24.20;12.45;;;-3.40;54.50;;;;;;5034770;28;46476;-65
2022/03/03 05:40:59;;;;;;;23.23;12.45;;;-3.50;54.50;;;;;;5034271;28;46534;-65
2022/03/03 05:43:26;;;;;;;27.27;12.90;;;-3.50;54.60;;;;;;5028345;28;46415;-63
2022/03/03 05:45:53;;;;;;;28.52;12.93;;;-3.50;54.70;;;;;;5028436;28;46413;-64
2022/03/03 05:48:20;;;;;;;29.02;13.82;;;-3.50;54.80;;;;;;5031726;28;47207;-64
2022/03/03 05:50:46;;;;;;;23.58;12.60;;;-3.50;54.70;;;;;;5036469;28;46374;-63
2022/03/03 05:53:13;;;;;;;34.08;12.82;;;-3.50;54.70;;;;;;5037977;28;46301;-65
2022/03/03 05:55:43;;;;;;;27.95;12.50;;;-3.50;54.80;;;;;;5034989;28;46333;-64
2022/03/03 05:58:17;;;;;;;22.30;12.00;;;-3.50;54.80;;;;;;5035963;28;46378;-64
2022/03/03 06:00:47;;;;;;;18.60;11.55;;;-3.50;54.80;;;;;;5034107;28;46394;-64
2022/03/03 06:03:16;;;;;;;28.00;11.65;;;-3.50;54.70;;;;;;5030423;28;46844;-64
2022/03/03 06:05:57;;;;;;;22.45;11.63;;;-3.40;54.80;;;;;;5030931;28;46451;-65
2022/03/03 06:08:30;;;;;;;37.95;13.75;;;-3.40;54.70;;;;;;5031320;28;46378;-64
2022/03/03 06:11:01;;;;;;;30.50;14.45;;;-3.40;54.60;;;;;;5026533;28;46935;-65
2022/03/03 06:13:46;;;;;;;34.75;15.68;;;-3.40;54.70;;;;;;5024918;28;46346;-64
2022/03/03 06:16:19;;;;;;;26.77;12.13;;;-3.40;54.70;;;;;;5027183;28;46362;-64
2022/03/03 06:18:49;;;;;;;23.27;11.68;;;-3.40;54.70;;;;;;5040263;28;45874;-64
2022/03/03 06:21:16;;;;;;;24.38;13.18;;;-3.40;54.80;;;;;;5035078;28;46663;-64
2022/03/03 06:23:42;;;;;;;22.58;12.95;;;-3.40;54.70;;;;;;5033474;28;46105;-64
2022/03/03 06:26:10;;;;;;;25.00;13.27;;;-3.30;54.80;;;;;;5035522;28;46307;-64
2022/03/03 06:28:36;;;;;;;39.95;16.98;;;-3.30;54.70;;;;;;5030942;28;45820;-63
2022/03/03 06:31:04;;;;;;;38.67;17.60;;;-3.20;54.60;;;;;;5030656;28;47198;-65
2022/03/03 06:33:30;;;;;;;32.63;15.73;;;-3.20;54.50;;;;;;5032769;28;46311;-65
2022/03/03 06:35:56;;;;;;;38.33;16.03;;;-3.10;54.20;;;;;;5030394;28;46281;-65
2022/03/03 06:38:22;;;;;;;24.83;13.03;;;-3.00;54.30;;;;;;5028693;28;46287;-65
2022/03/03 06:40:48;;;;;;;46.72;15.35;;;-2.90;54.40;;;;;;5028274;28;46079;-64
2022/03/03 06:43:13;;;;;;;27.63;14.37;;;-2.80;54.50;;;;;;5031661;28;46362;-66
2022/03/03 06:45:39;;;;;;;38.80;16.93;;;-2.70;54.30;;;;;;5030589;28;46589;-66
2022/03/03 06:48:05;;;;;;;27.47;12.87;;;-2.50;54.20;;;;;;5033814;28;46480;-64
2022/03/03 06:50:35;;;;;;;30.07;14.20;;;-2.40;54.20;;;;;;5030782;28;46486;-66
2022/03/03 06:53:03;;;;;;;27.38;12.55;;;-2.20;54.00;;;;;;5030018;28;46602;-65
2022/03/03 06:55:30;;;;;;;23.67;11.75;;;-2.00;53.90;;;;;;5031728;28;45835;-66
2022/03/03 06:57:57;;;;;;;20.10;11.85;;;-1.80;53.80;;;;;;5032589;28;46282;-66
2022/03/03 07:00:25;;;;;;;32.08;11.75;;;-1.70;53.60;;;;;;5030713;28;46236;-66
2022/03/03 07:02:52;;;;;;;19.48;11.55;;;-1.50;53.50;;;;;;5027982;28;46664;-69
2022/03/03 07:05:19;;;;;;;22.48;12.10;;;-1.30;53.30;;;;;;5029776;28;46371;-66
2022/03/03 07:07:47;;;;;;;24.05;12.73;;;-1.10;53.20;;;;;;5030489;28;46411;-66
2022/03/03 07:10:14;;;;;;;26.63;14.57;;;-1.00;53.00;;;;;;5028455;28;46356;-67
2022/03/03 07:12:40;;;;;;;22.40;12.80;;;-0.70;53.00;;;;;;5030240;28;46642;-67
2022/03/03 07:15:08;;;;;;;24.98;12.30;;;-0.60;52.70;;;;;;5031978;28;46457;-68
2022/03/03 07:17:47;;;;;;;28.02;13.40;;;-0.40;52.60;;;;;;5030011;28;46495;-66
2022/03/03 07:20:17;;;;;;;22.75;12.75;;;-0.20;52.70;;;;;;5031471;28;46315;-65
2022/03/03 07:23:16;;;;;;;20.70;13.45;;;0.00;52.70;;;;;;5028017;28;46849;-65
2022/03/03 07:25:46;;;;;;;21.38;12.38;;;0.20;52.60;;;;;;5026027;28;46378;-65
2022/03/03 07:28:14;;;;;;;27.40;13.10;;;0.50;52.30;;;;;;5033221;28;46378;-66
2022/03/03 07:30:43;;;;;;;37.92;12.95;;;0.70;52.20;;;;;;5035275;28;47204;-66
2022/03/03 07:33:26;;;;;;;27.98;12.13;;;0.90;52.20;;;;;;5032875;28;46386;-67
2022/03/03 07:35:56;;;;;;;31.67;11.82;;;1.10;51.90;;;;;;5031938;28;46396;-65
2022/03/03 07:38:26;;;;;;;24.10;13.55;;;1.30;53.00;;;;;;5030853;28;46693;-67
2022/03/03 07:40:52;;;;;;;23.67;11.75;;;1.30;51.90;;;;;;5029309;28;46341;-66
2022/03/03 07:43:18;;;;;;;23.27;12.80;;;1.50;52.00;;;;;;5031446;28;45755;-66
2022/03/03 07:45:45;;;;;;;22.60;14.00;;;1.70;52.20;;;;;;5030832;28;46427;-65
2022/03/03 07:48:12;;;;;;;18.45;12.30;;;1.80;52.10;;;;;;5031547;28;46325;-66
2022/03/03 07:50:41;;;;;;;22.60;13.40;;;2.00;52.30;;;;;;5032113;28;46473;-66
2022/03/03 07:53:10;;;;;;;21.50;13.23;;;2.10;52.40;;;;;;5033983;28;46443;-65
2022/03/03 07:55:43;;;;;;;20.80;12.65;;;2.30;52.40;;;;;;5034015;28;46322;-67
2022/03/03 07:58:14;;;;;;;31.30;14.80;;;2.50;52.50;;;;;;5030856;28;46543;-67
2022/03/03 08:00:46;;;;;;;31.25;14.15;;;2.60;52.30;;;;;;5034653;28;47477;-69
2022/03/03 08:03:15;;;;;;;24.02;13.60;;;2.60;52.20;;;;;;5027767;28;46426;-67
2022/03/03 08:05:44;;;;;;;19.75;11.68;;;2.60;52.50;;;;;;5026538;28;46506;-68
2022/03/03 08:08:14;;;;;;;23.08;12.05;;;2.70;52.80;;;;;;5027867;28;46415;-68
2022/03/03 08:10:42;;;;;;;26.80;14.93;;;2.60;53.10;;;;;;5026984;28;46520;-68
2022/03/03 08:13:14;;;;;;;23.02;13.02;;;2.60;53.30;;;;;;5028623;28;46465;-68
2022/03/03 08:15:41;;;;;;;21.85;12.95;;;2.60;53.70;;;;;;5029254;28;46554;-66
2022/03/03 08:18:07;;;;;;;24.23;13.10;;;2.60;54.00;;;;;;5030386;28;46513;-68
2022/03/03 08:20:34;;;;;;;23.83;12.45;;;2.70;54.10;;;;;;5031821;28;46424;-66
2022/03/03 08:23:01;;;;;;;28.50;13.27;;;2.70;54.10;;;;;;5032572;28;46339;-67
2022/03/03 08:25:27;;;;;;;28.63;14.13;;;2.70;54.00;;;;;;5031883;28;46755;-68
2022/03/03 08:27:54;;;;;;;25.38;13.10;;;2.80;54.00;;;;;;5027977;28;46516;-67
2022/03/03 08:30:21;;;;;;;22.83;13.35;;;2.90;53.80;;;;;;5030586;28;46462;-66
2022/03/03 08:33:08;;;;;;;19.65;11.65;;;3.10;53.30;;;;;;5029001;28;46421;-66
2022/03/03 08:35:37;;;;;;;20.30;12.15;;;3.30;53.10;;;;;;5027759;28;46311;-67
2022/03/03 08:38:06;;;;;;;20.63;12.20;;;3.40;52.90;;;;;;5039088;28;46362;-67
2022/03/03 08:40:33;;;;;;;23.38;12.57;;;3.50;52.70;;;;;;5034179;28;46530;-68
2022/03/03 08:43:01;;;;;;;24.52;14.45;;;3.70;52.50;;;;;;5032374;28;46437;-66
2022/03/03 08:45:31;;;;;;;21.13;12.40;;;3.70;52.20;;;;;;5034060;28;46791;-66
2022/03/03 08:48:00;;;;;;;24.13;10.63;;;3.90;52.00;;;;;;5034967;28;46620;-70
2022/03/03 08:50:28;;;;;;;22.20;12.18;;;4.00;52.00;;;;;;5029781;28;46423;-69
2022/03/03 08:52:56;;;;;;;20.13;11.45;;;4.10;51.80;;;;;;5028773;28;46484;-66
2022/03/03 08:55:22;;;;;;;18.73;11.77;;;4.30;51.50;;;;;;5032103;28;46475;-66
2022/03/03 08:57:48;;;;;;;20.70;12.87;;;4.40;51.40;;;;;;5027650;28;46362;-65
2022/03/03 09:00:13;;;;;;;26.63;12.33;;;4.50;51.20;;;;;;5030130;28;46343;-67
2022/03/03 09:02:46;;;;;;;18.43;11.77;;;4.70;51.10;;;;;;5024967;28;46631;-66
2022/03/03 09:05:11;;;;;;;17.42;10.57;;;4.70;51.00;;;;;;5029881;28;46402;-66
2022/03/03 09:07:38;;;;;;;19.47;11.50;;;4.70;51.00;;;;;;5034263;28;46519;-66
2022/03/03 09:10:05;;;;;;;19.50;11.40;;;4.70;51.00;;;;;;5032558;28;46937;-66
2022/03/03 09:12:30;;;;;;;21.35;12.00;;;4.90;51.00;;;;;;5030884;28;46318;-67
2022/03/03 09:14:56;;;;;;;23.70;11.53;;;5.10;50.90;;;;;;5032211;28;46435;-67
2022/03/03 09:17:22;;;;;;;21.23;13.17;;;5.20;50.60;;;;;;5029307;28;46406;-66
2022/03/03 09:19:47;;;;;;;19.33;11.97;;;5.40;50.40;;;;;;5033335;28;46626;-66
2022/03/03 09:22:13;;;;;;;17.53;10.63;;;5.40;50.20;;;;;;5031226;28;46435;-66
2022/03/03 09:24:39;;;;;;;24.93;13.20;;;5.50;50.10;;;;;;5028624;28;46136;-68
2022/03/03 09:27:04;;;;;;;18.60;12.00;;;5.70;50.00;;;;;;5031807;28;46452;-66
2022/03/03 09:29:33;;;;;;;19.87;11.77;;;5.80;49.40;;;;;;5036153;28;46457;-65
2022/03/03 09:32:00;;;;;;;19.87;11.13;;;5.80;49.00;;;;;;5029206;28;45905;-67
2022/03/03 09:34:25;;;;;;;20.23;11.10;;;5.90;49.40;;;;;;5030395;28;46289;-64
2022/03/03 09:36:51;;;;;;;20.50;11.13;;;5.90;49.10;;;;;;5031076;28;46003;-66
2022/03/03 09:39:17;;;;;;;21.50;10.37;;;5.90;49.10;;;;;;5030695;28;47025;-68
2022/03/03 09:41:42;;;;;;;19.70;10.07;;;6.00;49.20;;;;;;5032512;28;46308;-68
2022/03/03 09:44:08;;;;;;;19.27;11.00;;;6.10;49.30;;;;;;5033287;28;46438;-69
2022/03/03 09:46:36;;;;;;;22.70;11.70;;;6.10;49.30;;;;;;5029047;28;46470;-68
2022/03/03 09:49:03;;;;;;;22.00;11.83;;;6.00;49.20;;;;;;5033468;28;46420;-67
2022/03/03 09:51:29;;;;;;;18.63;11.60;;;6.10;48.90;;;;;;5028906;28;46417;-68
2022/03/03 09:53:55;;;;;;;16.63;10.73;;;6.10;49.20;;;;;;5036529;28;46412;-68
2022/03/03 09:56:21;;;;;;;21.13;12.68;;;6.10;48.40;;;;;;5031798;28;46470;-68
2022/03/03 09:58:48;;;;;;;27.00;14.27;;;6.20;47.50;;;;;;5031779;28;46409;-67
2022/03/03 10:01:14;;;;;;;23.47;11.53;;;6.20;47.60;;;;;;5033171;28;46410;-68
2022/03/03 10:03:41;;;;;;;30.87;15.03;;;6.30;47.70;;;;;;5028011;28;46343;-67
2022/03/03 10:06:11;;;;;;;18.50;11.60;;;6.30;47.40;;;;;;5029348;28;46508;-68
2022/03/03 10:08:37;;;;;;;20.70;10.33;;;6.40;47.10;;;;;;5030521;28;47434;-67
2022/03/03 10:11:03;;;;;;;22.10;12.67;;;6.40;46.40;;;;;;5028101;28;46445;-66
2022/03/03 10:13:49;;;;;;;25.43;14.17;;;6.50;46.40;;;;;;5030959;28;46794;-65
2022/03/03 10:16:24;;;;;;;19.60;11.80;;;6.40;45.80;;;;;;5034174;28;46403;-66
2022/03/03 10:19:04;;;;;;;22.70;12.83;;;6.50;45.80;;;;;;5031392;28;46308;-67
2022/03/03 10:21:32;;;;;;;24.07;11.10;;;6.60;45.30;;;;;;5032753;28;46454;-65
2022/03/03 10:23:59;;;;;;;23.03;10.27;;;6.60;44.70;;;;;;5032279;28;45955;-65
2022/03/03 10:26:38;;;;;;;18.50;9.80;;;6.60;44.20;;;;;;5030198;28;46704;-65
2022/03/03 10:29:18;;;;;;;19.70;11.10;;;6.60;43.50;;;;;;5030923;28;47251;-66
2022/03/03 10:31:48;;;;;;;28.10;13.07;;;6.70;43.10;;;;;;5031500;28;46468;-64
2022/03/03 10:34:31;;;;;;;25.13;12.80;;;6.80;42.70;;;;;;5027329;28;46354;-66
2022/03/03 10:37:09;;;;;;;18.53;11.00;;;6.80;42.70;;;;;;5030058;28;46430;-64
2022/03/03 10:39:45;;;;;;;21.00;12.40;;;6.80;41.80;;;;;;5031270;28;46348;-66
2022/03/03 10:42:23;;;;;;;18.87;11.90;;;6.80;41.80;;;;;;5030066;28;46458;-65
2022/03/03 10:45:17;;;;;;;20.30;10.43;;;7.00;41.00;;;;;;5028856;28;45783;-67
2022/03/03 10:48:03;;;;;;;18.63;10.97;;;7.00;40.90;;;;;;5029508;28;46399;-66
2022/03/03 10:50:49;;;;;;;14.43;9.40;;;7.00;39.60;;;;;;5036557;28;46138;-66
2022/03/03 10:53:18;;;;;;;14.90;8.40;;;7.00;37.50;;;;;;5026380;28;45768;-66
2022/03/03 10:56:12;;;;;;;20.30;7.57;;;7.00;36.80;;;;;;5029299;28;45773;-66
2022/03/03 10:58:54;;;;;;;14.20;7.97;;;7.10;36.90;;;;;;5033538;28;46440;-67
2022/03/03 11:01:25;;;;;;;14.63;8.57;;;7.10;36.90;;;;;;5030993;28;47036;-66
2022/03/03 11:03:52;;;;;;;15.30;9.30;;;7.20;37.00;;;;;;5030619;28;46326;-67
2022/03/03 11:06:33;;;;;;;16.67;8.97;;;7.30;37.00;;;;;;5031504;28;46367;-64
2022/03/03 11:09:00;;;;;;;15.13;8.80;;;7.40;33.80;;;;;;5028492;28;46387;-65
2022/03/03 11:11:26;;;;;;;13.60;9.07;;;7.50;35.10;;;;;;5030694;28;46386;-67
2022/03/03 11:13:53;;;;;;;14.40;8.30;;;7.60;35.50;;;;;;5032244;28;46398;-67
2022/03/03 11:16:22;;;;;;;15.07;8.10;;;7.70;35.30;;;;;;5028559;28;46446;-67
2022/03/03 11:18:48;;;;;;;17.13;9.27;;;7.80;35.20;;;;;;5026344;28;46467;-66
2022/03/03 11:21:15;;;;;;;14.13;8.73;;;7.80;32.30;;;;;;5022907;28;46425;-65
2022/03/03 11:23:44;;;;;;;14.00;8.37;;;7.80;33.20;;;;;;5021770;28;46508;-65
2022/03/03 11:26:22;;;;;;;13.60;8.33;;;7.80;31.70;;;;;;5038630;28;46844;-67
2022/03/03 11:28:57;;;;;;;15.73;8.90;;;7.90;31.10;;;;;;5034492;28;46437;-65
2022/03/03 11:31:28;;;;;;;15.60;9.60;;;8.00;31.90;;;;;;5031747;28;47989;-65
2022/03/03 11:34:30;;;;;;;18.97;9.20;;;8.10;31.60;;;;;;5030241;28;46268;-65
2022/03/03 11:37:07;;;;;;;15.93;9.80;;;8.20;31.70;;;;;;5029655;28;46448;-66
2022/03/03 11:39:40;;;;;;;15.43;8.63;;;8.30;32.20;;;;;;5025833;28;46656;-65
2022/03/03 11:42:24;;;;;;;22.03;8.77;;;8.40;32.30;;;;;;5031917;28;46273;-67
2022/03/03 11:44:56;;;;;;;16.33;9.07;;;8.30;30.50;;;;;;5032344;28;46342;-66
2022/03/03 11:47:22;;;;;;;13.93;8.97;;;8.40;30.10;;;;;;5027819;28;46616;-68
2022/03/03 11:50:06;;;;;;;17.40;8.90;;;8.40;30.80;;;;;;5027920;28;46596;-68
2022/03/03 11:52:32;;;;;;;18.90;9.80;;;8.60;30.80;;;;;;5026820;28;46461;-67
2022/03/03 11:55:19;;;;;;;12.70;8.47;;;8.60;30.80;;;;;;5032366;28;45913;-67
2022/03/03 11:57:44;;;;;;;24.63;8.90;;;8.60;30.60;;;;;;5031895;28;46446;-65
2022/03/03 12:00:17;;;;;;;14.90;8.90;;;8.70;30.20;;;;;;5027279;28;46727;-65
2022/03/03 12:02:54;;;;;;;14.00;9.33;;;8.80;30.30;;;;;;5027695;28;46674;-65
2022/03/03 12:05:31;;;;;;;14.23;8.90;;;8.90;30.00;;;;;;5028782;28;46505;-64
2022/03/03 12:08:13;;;;;;;15.83;9.43;;;8.90;29.20;;;;;;5026161;28;46684;-64
2022/03/03 12:11:04;;;;;;;14.90;8.87;;;8.80;29.30;;;;;;5028338;28;46226;-64
2022/03/03 12:13:39;;;;;;;29.70;10.37;;;8.80;29.20;;;;;;5030763;28;46619;-63
2022/03/03 12:16:25;;;;;;;20.77;9.80;;;8.80;28.70;;;;;;5033925;28;46508;-64
2022/03/03 12:18:56;;;;;;;19.63;9.17;;;8.90;28.20;;;;;;5028215;28;46685;-63
2022/03/03 12:21:26;;;;;;;18.70;8.90;;;8.90;28.40;;;;;;5031707;28;46044;-64
2022/03/03 12:24:28;;;;;;;16.63;9.40;;;8.90;28.40;;;;;;5028166;28;46396;-64
2022/03/03 12:26:57;;;;;;;18.73;8.97;;;9.00;28.00;;;;;;5019950;28;46528;-63
2022/03/03 12:29:41;;;;;;;20.20;9.40;;;9.00;27.80;;;;;;5033125;28;45831;-65
2022/03/03 12:32:44;;;;;;;14.97;9.77;;;9.00;26.20;;;;;;5030857;28;45957;-65
2022/03/03 12:35:18;;;;;;;14.23;8.90;;;9.10;27.20;;;;;;5032276;28;46554;-65
2022/03/03 12:37:46;;;;;;;23.30;10.10;;;9.10;26.20;;;;;;5032369;28;46485;-65
2022/03/03 12:40:15;;;;;;;14.90;9.37;;;9.00;26.50;;;;;;5036410;28;46473;-64
2022/03/03 12:42:44;;;;;;;12.83;9.87;;;9.00;26.20;;;;;;5034685;28;46420;-64